sensor_id;sensor_type;location;lat;lon;timestamp;temperature;humidity
7028;DHT22;3555;53.248;10.336;2023-04-24T00:01:00;12.20;99.90
7028;DHT22;3555;53.248;10.336;2023-04-24T00:03:29;12.30;99.90
7028;DHT22;3555;53.248;10.336;2023-04-24T00:05:56;12.30;99.90
7028;DHT22;3555;53.248;10.336;2023-04-24T00:08:24;12.40;99.90
7028;DHT22;3555;53.248;10.336;2023-04-24T00:10:51;12.30;99.90
7028;DHT22;3555;53.248;10.336;2023-04-24T00:13:18;12.20;99.90
7028;DHT22;3555;53.248;10.336;2023-04-24T00:15:45;12.20;99.90
7028;DHT22;3555;53.248;10.336;2023-04-24T00:18:13;12.20;99.90
7028;DHT22;3555;53.248;10.336;2023-04-24T00:20:41;12.30;99.90
7028;DHT22;3555;53.248;10.336;2023-04-24T00:23:09;12.20;99.90
7028;DHT22;3555;53.248;10.336;2023-04-24T00:25:36;12.20;99.90
7028;DHT22;3555;53.248;10.336;2023-04-24T00:28:02;12.40;99.90
7028;DHT22;3555;53.248;10.336;2023-04-24T00:30:29;12.20;99.90
7028;DHT22;3555;53.248;10.336;2023-04-24T00:32:57;12.10;99.90
7028;DHT22;3555;53.248;10.336;2023-04-24T00:35:23;12.20;99.90
7028;DHT22;3555;53.248;10.336;2023-04-24T00:37:52;12.30;99.90
7028;DHT22;3555;53.248;10.336;2023-04-24T00:40:19;12.30;99.90
7028;DHT22;3555;53.248;10.336;2023-04-24T00:42:45;12.50;99.90
7028;DHT22;3555;53.248;10.336;2023-04-24T00:45:13;12.60;99.90
7028;DHT22;3555;53.248;10.336;2023-04-24T00:47:41;12.60;99.90
7028;DHT22;3555;53.248;10.336;2023-04-24T00:50:09;12.60;99.90
7028;DHT22;3555;53.248;10.336;2023-04-24T00:52:36;12.50;99.90
7028;DHT22;3555;53.248;10.336;2023-04-24T00:55:08;12.40;99.90
7028;DHT22;3555;53.248;10.336;2023-04-24T00:57:36;12.40;99.90
7028;DHT22;3555;53.248;10.336;2023-04-24T01:00:04;12.40;99.90
7028;DHT22;3555;53.248;10.336;2023-04-24T01:02:38;12.40;99.90
7028;DHT22;3555;53.248;10.336;2023-04-24T01:05:09;12.40;99.90
7028;DHT22;3555;53.248;10.336;2023-04-24T01:07:38;12.40;99.90
7028;DHT22;3555;53.248;10.336;2023-04-24T01:10:07;12.30;99.90
7028;DHT22;3555;53.248;10.336;2023-04-24T01:12:35;12.10;99.90
7028;DHT22;3555;53.248;10.336;2023-04-24T01:15:02;12.10;99.90
7028;DHT22;3555;53.248;10.336;2023-04-24T01:17:30;12.10;99.90
7028;DHT22;3555;53.248;10.336;2023-04-24T01:19:58;12.20;99.90
7028;DHT22;3555;53.248;10.336;2023-04-24T01:22:27;12.20;99.90
7028;DHT22;3555;53.248;10.336;2023-04-24T01:24:53;12.10;99.90
7028;DHT22;3555;53.248;10.336;2023-04-24T01:27:20;12.10;99.90
7028;DHT22;3555;53.248;10.336;2023-04-24T01:29:47;12.00;99.90
7028;DHT22;3555;53.248;10.336;2023-04-24T01:32:15;12.00;99.90
7028;DHT22;3555;53.248;10.336;2023-04-24T01:34:43;12.00;99.90
7028;DHT22;3555;53.248;10.336;2023-04-24T01:37:10;12.00;99.90
7028;DHT22;3555;53.248;10.336;2023-04-24T01:39:38;11.90;99.90
7028;DHT22;3555;53.248;10.336;2023-04-24T01:42:06;11.90;99.90
7028;DHT22;3555;53.248;10.336;2023-04-24T01:44:33;11.80;99.90
7028;DHT22;3555;53.248;10.336;2023-04-24T01:47:01;11.80;99.90
7028;DHT22;3555;53.248;10.336;2023-04-24T01:49:28;11.70;99.90
7028;DHT22;3555;53.248;10.336;2023-04-24T01:51:55;11.70;99.90
7028;DHT22;3555;53.248;10.336;2023-04-24T01:54:21;11.70;99.90
7028;DHT22;3555;53.248;10.336;2023-04-24T01:56:50;11.80;99.90
7028;DHT22;3555;53.248;10.336;2023-04-24T01:59:17;11.70;99.90
7028;DHT22;3555;53.248;10.336;2023-04-24T02:01:44;11.80;99.90
7028;DHT22;3555;53.248;10.336;2023-04-24T02:04:11;11.70;99.90
7028;DHT22;3555;53.248;10.336;2023-04-24T02:06:39;11.70;99.90
7028;DHT22;3555;53.248;10.336;2023-04-24T02:09:06;11.70;99.90
7028;DHT22;3555;53.248;10.336;2023-04-24T02:11:33;11.70;99.90
7028;DHT22;3555;53.248;10.336;2023-04-24T02:14:01;11.70;99.90
7028;DHT22;3555;53.248;10.336;2023-04-24T02:16:28;11.60;99.90
7028;DHT22;3555;53.248;10.336;2023-04-24T02:18:58;11.60;99.90
7028;DHT22;3555;53.248;10.336;2023-04-24T02:21:25;11.60;99.90
7028;DHT22;3555;53.248;10.336;2023-04-24T02:23:52;11.50;99.90
7028;DHT22;3555;53.248;10.336;2023-04-24T02:26:19;11.40;99.90
7028;DHT22;3555;53.248;10.336;2023-04-24T02:28:46;11.50;99.90
7028;DHT22;3555;53.248;10.336;2023-04-24T02:31:14;11.60;99.90
7028;DHT22;3555;53.248;10.336;2023-04-24T02:33:41;11.50;99.90
7028;DHT22;3555;53.248;10.336;2023-04-24T02:36:08;11.40;99.90
7028;DHT22;3555;53.248;10.336;2023-04-24T02:38:35;11.50;99.90
7028;DHT22;3555;53.248;10.336;2023-04-24T02:41:02;11.50;99.90
7028;DHT22;3555;53.248;10.336;2023-04-24T02:43:31;11.40;99.90
7028;DHT22;3555;53.248;10.336;2023-04-24T02:45:58;11.40;99.90
7028;DHT22;3555;53.248;10.336;2023-04-24T02:48:26;11.40;99.90
7028;DHT22;3555;53.248;10.336;2023-04-24T02:50:54;11.20;99.90
7028;DHT22;3555;53.248;10.336;2023-04-24T02:53:20;11.10;99.90
7028;DHT22;3555;53.248;10.336;2023-04-24T02:55:49;11.20;99.90
7028;DHT22;3555;53.248;10.336;2023-04-24T02:58:15;11.20;1.00
7028;DHT22;3555;53.248;10.336;2023-04-24T03:00:43;11.10;99.90
7028;DHT22;3555;53.248;10.336;2023-04-24T03:03:10;11.20;99.90
7028;DHT22;3555;53.248;10.336;2023-04-24T03:05:38;11.20;1.00
7028;DHT22;3555;53.248;10.336;2023-04-24T03:08:05;11.10;1.00
7028;DHT22;3555;53.248;10.336;2023-04-24T03:10:32;11.10;1.00
7028;DHT22;3555;53.248;10.336;2023-04-24T03:12:59;11.10;99.90
7028;DHT22;3555;53.248;10.336;2023-04-24T03:15:26;11.20;1.00
7028;DHT22;3555;53.248;10.336;2023-04-24T03:17:53;11.10;99.90
7028;DHT22;3555;53.248;10.336;2023-04-24T03:20:21;11.00;1.00
7028;DHT22;3555;53.248;10.336;2023-04-24T03:22:49;11.00;99.90
7028;DHT22;3555;53.248;10.336;2023-04-24T03:25:16;10.90;1.00
7028;DHT22;3555;53.248;10.336;2023-04-24T03:27:43;10.90;1.00
7028;DHT22;3555;53.248;10.336;2023-04-24T03:30:10;10.60;99.90
7028;DHT22;3555;53.248;10.336;2023-04-24T03:32:37;10.80;14.90
7028;DHT22;3555;53.248;10.336;2023-04-24T03:35:05;10.70;99.90
7028;DHT22;3555;53.248;10.336;2023-04-24T03:37:33;10.70;99.90
7028;DHT22;3555;53.248;10.336;2023-04-24T03:40:01;10.60;1.00
7028;DHT22;3555;53.248;10.336;2023-04-24T03:42:28;10.70;1.00
7028;DHT22;3555;53.248;10.336;2023-04-24T03:44:54;10.80;99.90
7028;DHT22;3555;53.248;10.336;2023-04-24T03:47:21;10.90;1.00
7028;DHT22;3555;53.248;10.336;2023-04-24T03:49:48;10.80;1.00
7028;DHT22;3555;53.248;10.336;2023-04-24T03:52:15;10.60;1.00
7028;DHT22;3555;53.248;10.336;2023-04-24T03:54:42;10.60;1.00
7028;DHT22;3555;53.248;10.336;2023-04-24T03:57:10;10.60;1.00
7028;DHT22;3555;53.248;10.336;2023-04-24T03:59:37;10.60;1.00
7028;DHT22;3555;53.248;10.336;2023-04-24T04:02:04;10.40;1.00
7028;DHT22;3555;53.248;10.336;2023-04-24T04:04:31;10.50;99.90
7028;DHT22;3555;53.248;10.336;2023-04-24T04:06:57;10.30;1.00
7028;DHT22;3555;53.248;10.336;2023-04-24T04:09:26;10.40;99.90
7028;DHT22;3555;53.248;10.336;2023-04-24T04:11:53;10.40;1.00
7028;DHT22;3555;53.248;10.336;2023-04-24T04:14:22;10.50;1.00
7028;DHT22;3555;53.248;10.336;2023-04-24T04:16:49;10.40;1.00
7028;DHT22;3555;53.248;10.336;2023-04-24T04:19:16;10.30;1.00
7028;DHT22;3555;53.248;10.336;2023-04-24T04:21:43;10.20;1.00
7028;DHT22;3555;53.248;10.336;2023-04-24T04:24:11;10.20;1.00
7028;DHT22;3555;53.248;10.336;2023-04-24T04:26:38;10.10;1.00
7028;DHT22;3555;53.248;10.336;2023-04-24T04:29:06;10.10;99.90
7028;DHT22;3555;53.248;10.336;2023-04-24T04:31:34;10.20;99.90
7028;DHT22;3555;53.248;10.336;2023-04-24T04:34:02;10.30;99.90
7028;DHT22;3555;53.248;10.336;2023-04-24T04:36:29;10.30;1.00
7028;DHT22;3555;53.248;10.336;2023-04-24T04:38:56;10.20;71.90
7028;DHT22;3555;53.248;10.336;2023-04-24T04:41:24;10.40;22.50
7028;DHT22;3555;53.248;10.336;2023-04-24T04:43:51;10.40;99.90
7028;DHT22;3555;53.248;10.336;2023-04-24T04:46:18;10.40;99.90
7028;DHT22;3555;53.248;10.336;2023-04-24T04:48:47;10.40;99.90
7028;DHT22;3555;53.248;10.336;2023-04-24T04:51:14;10.40;99.90
7028;DHT22;3555;53.248;10.336;2023-04-24T04:53:41;10.40;99.90
7028;DHT22;3555;53.248;10.336;2023-04-24T04:56:08;10.40;1.00
7028;DHT22;3555;53.248;10.336;2023-04-24T04:58:34;10.20;1.00
7028;DHT22;3555;53.248;10.336;2023-04-24T05:01:01;10.20;1.00
7028;DHT22;3555;53.248;10.336;2023-04-24T05:03:28;10.20;1.00
7028;DHT22;3555;53.248;10.336;2023-04-24T05:05:57;10.20;1.00
7028;DHT22;3555;53.248;10.336;2023-04-24T05:08:24;10.30;90.30
7028;DHT22;3555;53.248;10.336;2023-04-24T05:10:51;10.10;1.00
7028;DHT22;3555;53.248;10.336;2023-04-24T05:13:18;10.60;99.90
7028;DHT22;3555;53.248;10.336;2023-04-24T05:15:45;10.80;99.90
7028;DHT22;3555;53.248;10.336;2023-04-24T05:18:12;11.00;1.00
7028;DHT22;3555;53.248;10.336;2023-04-24T05:20:38;11.20;1.00
7028;DHT22;3555;53.248;10.336;2023-04-24T05:23:07;11.30;99.90
7028;DHT22;3555;53.248;10.336;2023-04-24T05:25:34;11.50;99.90
7028;DHT22;3555;53.248;10.336;2023-04-24T05:28:01;11.60;1.00
7028;DHT22;3555;53.248;10.336;2023-04-24T05:30:28;11.60;1.00
7028;DHT22;3555;53.248;10.336;2023-04-24T05:32:54;11.60;1.00
7028;DHT22;3555;53.248;10.336;2023-04-24T05:35:21;11.60;1.00
7028;DHT22;3555;53.248;10.336;2023-04-24T05:37:48;11.60;1.00
7028;DHT22;3555;53.248;10.336;2023-04-24T05:40:16;11.50;1.00
7028;DHT22;3555;53.248;10.336;2023-04-24T05:42:43;11.60;1.00
7028;DHT22;3555;53.248;10.336;2023-04-24T05:45:10;11.70;1.00
7028;DHT22;3555;53.248;10.336;2023-04-24T05:47:42;11.90;1.00
7028;DHT22;3555;53.248;10.336;2023-04-24T05:50:09;12.10;1.00
7028;DHT22;3555;53.248;10.336;2023-04-24T05:52:36;12.40;99.90
7028;DHT22;3555;53.248;10.336;2023-04-24T05:55:04;12.40;1.00
7028;DHT22;3555;53.248;10.336;2023-04-24T05:57:32;12.50;1.00
7028;DHT22;3555;53.248;10.336;2023-04-24T05:59:59;12.80;1.00
7028;DHT22;3555;53.248;10.336;2023-04-24T06:02:26;13.00;1.00
7028;DHT22;3555;53.248;10.336;2023-04-24T06:04:54;13.20;1.00
7028;DHT22;3555;53.248;10.336;2023-04-24T06:07:21;13.30;1.00
7028;DHT22;3555;53.248;10.336;2023-04-24T06:09:48;13.50;1.00
7028;DHT22;3555;53.248;10.336;2023-04-24T06:12:15;13.50;99.90
7028;DHT22;3555;53.248;10.336;2023-04-24T06:14:43;13.60;1.00
7028;DHT22;3555;53.248;10.336;2023-04-24T06:17:10;13.60;99.90
7028;DHT22;3555;53.248;10.336;2023-04-24T06:19:36;13.80;99.90
7028;DHT22;3555;53.248;10.336;2023-04-24T06:22:03;13.90;99.90
7028;DHT22;3555;53.248;10.336;2023-04-24T06:24:30;14.10;99.90
7028;DHT22;3555;53.248;10.336;2023-04-24T06:26:57;14.00;99.90
7028;DHT22;3555;53.248;10.336;2023-04-24T06:29:25;14.10;99.90
7028;DHT22;3555;53.248;10.336;2023-04-24T06:31:53;14.30;99.90
7028;DHT22;3555;53.248;10.336;2023-04-24T06:34:20;14.50;99.90
7028;DHT22;3555;53.248;10.336;2023-04-24T06:36:47;14.70;99.90
7028;DHT22;3555;53.248;10.336;2023-04-24T06:39:14;15.10;87.70
7028;DHT22;3555;53.248;10.336;2023-04-24T06:41:41;15.20;30.80
7028;DHT22;3555;53.248;10.336;2023-04-24T06:44:08;15.20;1.00
7028;DHT22;3555;53.248;10.336;2023-04-24T06:46:35;15.20;1.00
7028;DHT22;3555;53.248;10.336;2023-04-24T06:49:03;15.20;1.00
7028;DHT22;3555;53.248;10.336;2023-04-24T06:51:30;15.30;1.00
7028;DHT22;3555;53.248;10.336;2023-04-24T06:53:58;15.50;1.00
7028;DHT22;3555;53.248;10.336;2023-04-24T06:56:26;15.60;1.00
7028;DHT22;3555;53.248;10.336;2023-04-24T06:58:54;15.70;1.00
7028;DHT22;3555;53.248;10.336;2023-04-24T07:01:21;15.60;1.00
7028;DHT22;3555;53.248;10.336;2023-04-24T07:03:48;15.80;1.00
7028;DHT22;3555;53.248;10.336;2023-04-24T07:06:16;15.90;1.00
7028;DHT22;3555;53.248;10.336;2023-04-24T07:08:44;15.90;1.00
7028;DHT22;3555;53.248;10.336;2023-04-24T07:11:12;16.20;1.00
7028;DHT22;3555;53.248;10.336;2023-04-24T07:13:38;16.10;1.00
7028;DHT22;3555;53.248;10.336;2023-04-24T07:16:07;16.30;1.00
7028;DHT22;3555;53.248;10.336;2023-04-24T07:18:35;16.40;1.00
7028;DHT22;3555;53.248;10.336;2023-04-24T07:21:02;16.70;1.00
7028;DHT22;3555;53.248;10.336;2023-04-24T07:23:31;17.00;1.00
7028;DHT22;3555;53.248;10.336;2023-04-24T07:25:58;17.20;1.00
7028;DHT22;3555;53.248;10.336;2023-04-24T07:28:25;17.30;1.00
7028;DHT22;3555;53.248;10.336;2023-04-24T07:30:52;17.30;1.00
7028;DHT22;3555;53.248;10.336;2023-04-24T07:33:19;17.40;1.00
7028;DHT22;3555;53.248;10.336;2023-04-24T07:35:46;16.80;1.00
7028;DHT22;3555;53.248;10.336;2023-04-24T07:38:13;16.30;1.00
7028;DHT22;3555;53.248;10.336;2023-04-24T07:40:41;16.30;1.00
7028;DHT22;3555;53.248;10.336;2023-04-24T07:43:08;16.30;1.00
7028;DHT22;3555;53.248;10.336;2023-04-24T07:45:35;16.10;1.00
7028;DHT22;3555;53.248;10.336;2023-04-24T07:48:03;16.10;1.00
7028;DHT22;3555;53.248;10.336;2023-04-24T07:50:30;15.80;1.00
7028;DHT22;3555;53.248;10.336;2023-04-24T07:52:57;15.70;1.00
7028;DHT22;3555;53.248;10.336;2023-04-24T07:55:24;15.70;1.00
7028;DHT22;3555;53.248;10.336;2023-04-24T07:57:52;15.50;1.00
7028;DHT22;3555;53.248;10.336;2023-04-24T08:00:19;15.90;1.00
7028;DHT22;3555;53.248;10.336;2023-04-24T08:02:46;16.20;1.00
7028;DHT22;3555;53.248;10.336;2023-04-24T08:05:13;16.40;1.00
7028;DHT22;3555;53.248;10.336;2023-04-24T08:07:40;16.50;1.00
7028;DHT22;3555;53.248;10.336;2023-04-24T08:10:10;16.60;1.00
7028;DHT22;3555;53.248;10.336;2023-04-24T08:12:37;16.50;1.00
7028;DHT22;3555;53.248;10.336;2023-04-24T08:15:06;16.40;1.00
7028;DHT22;3555;53.248;10.336;2023-04-24T08:17:33;16.60;1.00
7028;DHT22;3555;53.248;10.336;2023-04-24T08:20:00;16.80;1.00
7028;DHT22;3555;53.248;10.336;2023-04-24T08:22:28;16.90;1.00
7028;DHT22;3555;53.248;10.336;2023-04-24T08:24:55;16.90;1.00
7028;DHT22;3555;53.248;10.336;2023-04-24T08:27:22;17.10;1.00
7028;DHT22;3555;53.248;10.336;2023-04-24T08:29:49;17.00;1.00
7028;DHT22;3555;53.248;10.336;2023-04-24T08:32:18;17.20;1.00
7028;DHT22;3555;53.248;10.336;2023-04-24T08:34:45;17.60;1.00
7028;DHT22;3555;53.248;10.336;2023-04-24T08:37:12;17.50;1.00
7028;DHT22;3555;53.248;10.336;2023-04-24T08:39:40;17.30;1.00
7028;DHT22;3555;53.248;10.336;2023-04-24T08:42:08;17.10;1.00
7028;DHT22;3555;53.248;10.336;2023-04-24T08:44:36;16.00;1.00
7028;DHT22;3555;53.248;10.336;2023-04-24T08:47:03;16.00;1.00
7028;DHT22;3555;53.248;10.336;2023-04-24T08:49:31;16.00;1.00
7028;DHT22;3555;53.248;10.336;2023-04-24T08:51:59;15.90;1.00
7028;DHT22;3555;53.248;10.336;2023-04-24T08:54:26;16.10;1.00
7028;DHT22;3555;53.248;10.336;2023-04-24T08:56:54;16.20;1.00
7028;DHT22;3555;53.248;10.336;2023-04-24T08:59:27;16.20;1.00
7028;DHT22;3555;53.248;10.336;2023-04-24T09:01:55;16.00;1.00
7028;DHT22;3555;53.248;10.336;2023-04-24T09:04:23;16.10;1.00
7028;DHT22;3555;53.248;10.336;2023-04-24T09:06:55;15.90;1.00
7028;DHT22;3555;53.248;10.336;2023-04-24T09:09:23;15.80;1.00
7028;DHT22;3555;53.248;10.336;2023-04-24T09:11:50;15.60;1.00
7028;DHT22;3555;53.248;10.336;2023-04-24T09:14:19;15.40;1.00
7028;DHT22;3555;53.248;10.336;2023-04-24T09:16:46;15.40;1.00
7028;DHT22;3555;53.248;10.336;2023-04-24T09:19:13;15.20;1.00
7028;DHT22;3555;53.248;10.336;2023-04-24T09:21:40;15.10;1.00
7028;DHT22;3555;53.248;10.336;2023-04-24T09:24:16;15.10;1.00
7028;DHT22;3555;53.248;10.336;2023-04-24T09:26:44;15.20;1.00
7028;DHT22;3555;53.248;10.336;2023-04-24T09:29:14;15.40;1.00
7028;DHT22;3555;53.248;10.336;2023-04-24T09:31:42;15.80;1.00
7028;DHT22;3555;53.248;10.336;2023-04-24T09:34:09;16.00;1.00
7028;DHT22;3555;53.248;10.336;2023-04-24T09:36:37;16.20;1.00
7028;DHT22;3555;53.248;10.336;2023-04-24T09:39:05;16.50;1.00
7028;DHT22;3555;53.248;10.336;2023-04-24T09:41:35;16.50;1.00
7028;DHT22;3555;53.248;10.336;2023-04-24T09:44:12;16.60;1.00
7028;DHT22;3555;53.248;10.336;2023-04-24T09:46:41;16.50;1.00
7028;DHT22;3555;53.248;10.336;2023-04-24T09:49:09;16.40;1.00
7028;DHT22;3555;53.248;10.336;2023-04-24T09:51:37;16.10;1.00
7028;DHT22;3555;53.248;10.336;2023-04-24T09:54:13;16.00;1.00
7028;DHT22;3555;53.248;10.336;2023-04-24T09:56:44;15.70;1.00
7028;DHT22;3555;53.248;10.336;2023-04-24T09:59:12;15.20;1.00
7028;DHT22;3555;53.248;10.336;2023-04-24T10:01:39;15.10;1.00
7028;DHT22;3555;53.248;10.336;2023-04-24T10:04:15;15.30;1.00
7028;DHT22;3555;53.248;10.336;2023-04-24T10:06:44;15.30;1.00
7028;DHT22;3555;53.248;10.336;2023-04-24T10:09:11;15.50;1.00
7028;DHT22;3555;53.248;10.336;2023-04-24T10:14:13;15.60;1.00
7028;DHT22;3555;53.248;10.336;2023-04-24T10:16:40;15.50;1.00
7028;DHT22;3555;53.248;10.336;2023-04-24T10:19:08;15.60;1.00
7028;DHT22;3555;53.248;10.336;2023-04-24T10:21:35;16.00;1.00
7028;DHT22;3555;53.248;10.336;2023-04-24T10:24:04;16.00;1.00
7028;DHT22;3555;53.248;10.336;2023-04-24T10:26:33;16.00;1.00
7028;DHT22;3555;53.248;10.336;2023-04-24T10:29:01;15.50;1.00
7028;DHT22;3555;53.248;10.336;2023-04-24T10:31:32;15.40;1.00
7028;DHT22;3555;53.248;10.336;2023-04-24T10:34:00;15.30;1.00
7028;DHT22;3555;53.248;10.336;2023-04-24T10:36:30;15.20;1.00
7028;DHT22;3555;53.248;10.336;2023-04-24T10:38:59;15.40;1.00
7028;DHT22;3555;53.248;10.336;2023-04-24T10:41:27;15.70;1.00
7028;DHT22;3555;53.248;10.336;2023-04-24T10:44:06;15.60;1.00
7028;DHT22;3555;53.248;10.336;2023-04-24T10:46:34;15.50;1.00
7028;DHT22;3555;53.248;10.336;2023-04-24T10:49:04;15.20;1.00
7028;DHT22;3555;53.248;10.336;2023-04-24T10:51:47;15.20;1.00
7028;DHT22;3555;53.248;10.336;2023-04-24T10:54:25;15.60;1.00
7028;DHT22;3555;53.248;10.336;2023-04-24T10:56:52;15.90;1.00
7028;DHT22;3555;53.248;10.336;2023-04-24T10:59:24;16.00;1.00
7028;DHT22;3555;53.248;10.336;2023-04-24T11:01:54;16.00;1.00
7028;DHT22;3555;53.248;10.336;2023-04-24T11:04:32;16.10;1.00
7028;DHT22;3555;53.248;10.336;2023-04-24T11:07:01;16.30;1.00
7028;DHT22;3555;53.248;10.336;2023-04-24T11:09:30;16.40;1.00
7028;DHT22;3555;53.248;10.336;2023-04-24T11:12:05;16.40;1.00
7028;DHT22;3555;53.248;10.336;2023-04-24T11:15:00;16.30;1.00
7028;DHT22;3555;53.248;10.336;2023-04-24T11:17:33;16.30;1.00
7028;DHT22;3555;53.248;10.336;2023-04-24T11:20:03;16.00;1.00
7028;DHT22;3555;53.248;10.336;2023-04-24T11:22:34;16.30;1.00
7028;DHT22;3555;53.248;10.336;2023-04-24T11:25:02;16.40;1.00
7028;DHT22;3555;53.248;10.336;2023-04-24T11:27:30;15.80;1.00
7028;DHT22;3555;53.248;10.336;2023-04-24T11:30:02;15.90;1.00
7028;DHT22;3555;53.248;10.336;2023-04-24T11:32:34;16.10;1.00
7028;DHT22;3555;53.248;10.336;2023-04-24T11:35:04;16.50;1.00
7028;DHT22;3555;53.248;10.336;2023-04-24T11:37:35;17.00;1.00
7028;DHT22;3555;53.248;10.336;2023-04-24T11:40:04;16.80;1.00
7028;DHT22;3555;53.248;10.336;2023-04-24T11:42:34;16.50;1.00
7028;DHT22;3555;53.248;10.336;2023-04-24T11:45:01;16.50;1.00
7028;DHT22;3555;53.248;10.336;2023-04-24T11:47:31;16.60;1.00
7028;DHT22;3555;53.248;10.336;2023-04-24T11:49:59;16.50;1.00
7028;DHT22;3555;53.248;10.336;2023-04-24T11:52:27;16.30;1.00
7028;DHT22;3555;53.248;10.336;2023-04-24T11:54:54;15.80;1.00
7028;DHT22;3555;53.248;10.336;2023-04-24T11:57:21;15.50;1.00
7028;DHT22;3555;53.248;10.336;2023-04-24T11:59:48;15.20;1.00
7028;DHT22;3555;53.248;10.336;2023-04-24T12:02:25;15.00;1.00
7028;DHT22;3555;53.248;10.336;2023-04-24T12:04:54;15.10;1.00
7028;DHT22;3555;53.248;10.336;2023-04-24T12:07:22;14.90;1.00
7028;DHT22;3555;53.248;10.336;2023-04-24T12:09:55;15.00;1.00
7028;DHT22;3555;53.248;10.336;2023-04-24T12:12:25;15.10;1.00
7028;DHT22;3555;53.248;10.336;2023-04-24T12:14:53;15.00;1.00
7028;DHT22;3555;53.248;10.336;2023-04-24T12:17:24;15.20;1.00
7028;DHT22;3555;53.248;10.336;2023-04-24T12:19:56;15.20;1.00
7028;DHT22;3555;53.248;10.336;2023-04-24T12:22:23;15.10;1.00
7028;DHT22;3555;53.248;10.336;2023-04-24T12:24:58;15.20;1.00
7028;DHT22;3555;53.248;10.336;2023-04-24T12:27:26;15.20;1.00
7028;DHT22;3555;53.248;10.336;2023-04-24T12:29:53;15.10;1.00
7028;DHT22;3555;53.248;10.336;2023-04-24T12:32:22;15.20;1.00
7028;DHT22;3555;53.248;10.336;2023-04-24T12:34:49;14.50;1.00
7028;DHT22;3555;53.248;10.336;2023-04-24T12:37:18;14.60;1.00
7028;DHT22;3555;53.248;10.336;2023-04-24T12:39:58;14.70;1.00
7028;DHT22;3555;53.248;10.336;2023-04-24T12:42:26;14.70;1.00
7028;DHT22;3555;53.248;10.336;2023-04-24T12:44:56;14.60;1.00
7028;DHT22;3555;53.248;10.336;2023-04-24T12:47:24;14.80;1.00
7028;DHT22;3555;53.248;10.336;2023-04-24T12:49:51;14.90;1.00
7028;DHT22;3555;53.248;10.336;2023-04-24T12:52:19;14.80;1.00
7028;DHT22;3555;53.248;10.336;2023-04-24T12:54:47;14.50;1.00
7028;DHT22;3555;53.248;10.336;2023-04-24T12:57:13;14.20;1.00
7028;DHT22;3555;53.248;10.336;2023-04-24T12:59:40;13.90;1.00
7028;DHT22;3555;53.248;10.336;2023-04-24T13:02:07;13.90;1.00
7028;DHT22;3555;53.248;10.336;2023-04-24T13:04:35;13.90;1.00
7028;DHT22;3555;53.248;10.336;2023-04-24T13:07:02;13.80;1.00
7028;DHT22;3555;53.248;10.336;2023-04-24T13:09:30;14.00;1.00
7028;DHT22;3555;53.248;10.336;2023-04-24T13:11:57;14.00;1.00
7028;DHT22;3555;53.248;10.336;2023-04-24T13:14:24;13.90;1.00
7028;DHT22;3555;53.248;10.336;2023-04-24T13:16:51;13.80;1.00
7028;DHT22;3555;53.248;10.336;2023-04-24T13:19:18;13.70;1.00
7028;DHT22;3555;53.248;10.336;2023-04-24T13:21:45;13.60;1.00
7028;DHT22;3555;53.248;10.336;2023-04-24T13:24:12;13.60;1.00
7028;DHT22;3555;53.248;10.336;2023-04-24T13:26:42;13.80;1.00
7028;DHT22;3555;53.248;10.336;2023-04-24T13:29:09;13.90;1.00
7028;DHT22;3555;53.248;10.336;2023-04-24T13:31:36;13.90;1.00
7028;DHT22;3555;53.248;10.336;2023-04-24T13:34:03;13.90;1.00
7028;DHT22;3555;53.248;10.336;2023-04-24T13:36:30;13.80;1.00
7028;DHT22;3555;53.248;10.336;2023-04-24T13:38:57;13.80;1.00
7028;DHT22;3555;53.248;10.336;2023-04-24T13:41:24;13.80;1.00
7028;DHT22;3555;53.248;10.336;2023-04-24T13:43:52;13.90;1.00
7028;DHT22;3555;53.248;10.336;2023-04-24T13:46:19;14.00;1.00
7028;DHT22;3555;53.248;10.336;2023-04-24T13:48:46;14.20;1.00
7028;DHT22;3555;53.248;10.336;2023-04-24T13:51:13;14.20;1.00
7028;DHT22;3555;53.248;10.336;2023-04-24T13:53:39;14.30;1.00
7028;DHT22;3555;53.248;10.336;2023-04-24T13:56:06;14.30;1.00
7028;DHT22;3555;53.248;10.336;2023-04-24T13:58:34;14.40;1.00
7028;DHT22;3555;53.248;10.336;2023-04-24T14:01:03;14.40;1.00
7028;DHT22;3555;53.248;10.336;2023-04-24T14:03:31;14.30;1.00
7028;DHT22;3555;53.248;10.336;2023-04-24T14:05:57;14.00;1.00
7028;DHT22;3555;53.248;10.336;2023-04-24T14:08:24;13.60;1.00
7028;DHT22;3555;53.248;10.336;2023-04-24T14:10:51;13.20;1.00
7028;DHT22;3555;53.248;10.336;2023-04-24T14:13:18;13.30;6.40
7028;DHT22;3555;53.248;10.336;2023-04-24T14:15:46;13.40;1.00
7028;DHT22;3555;53.248;10.336;2023-04-24T14:18:14;13.50;1.00
7028;DHT22;3555;53.248;10.336;2023-04-24T14:20:41;13.50;2.90
7028;DHT22;3555;53.248;10.336;2023-04-24T14:23:07;13.50;4.80
7028;DHT22;3555;53.248;10.336;2023-04-24T14:25:34;13.50;10.20
7028;DHT22;3555;53.248;10.336;2023-04-24T14:28:01;13.40;17.80
7028;DHT22;3555;53.248;10.336;2023-04-24T14:30:28;13.30;35.80
7028;DHT22;3555;53.248;10.336;2023-04-24T14:32:55;13.30;95.10
7028;DHT22;3555;53.248;10.336;2023-04-24T14:35:23;13.20;93.80
7028;DHT22;3555;53.248;10.336;2023-04-24T14:37:50;13.10;90.30
7028;DHT22;3555;53.248;10.336;2023-04-24T14:40:17;13.10;99.90
7028;DHT22;3555;53.248;10.336;2023-04-24T14:42:43;12.90;99.90
7028;DHT22;3555;53.248;10.336;2023-04-24T14:45:11;12.80;99.90
7028;DHT22;3555;53.248;10.336;2023-04-24T14:47:38;12.70;99.90
7028;DHT22;3555;53.248;10.336;2023-04-24T14:50:06;12.60;99.90
7028;DHT22;3555;53.248;10.336;2023-04-24T14:52:35;12.40;99.90
7028;DHT22;3555;53.248;10.336;2023-04-24T14:55:03;12.30;99.90
7028;DHT22;3555;53.248;10.336;2023-04-24T14:57:30;12.30;99.90
7028;DHT22;3555;53.248;10.336;2023-04-24T14:59:57;12.30;1.00
7028;DHT22;3555;53.248;10.336;2023-04-24T15:02:24;12.20;1.00
7028;DHT22;3555;53.248;10.336;2023-04-24T15:04:51;12.20;1.00
7028;DHT22;3555;53.248;10.336;2023-04-24T15:07:18;12.00;1.00
7028;DHT22;3555;53.248;10.336;2023-04-24T15:09:46;11.70;1.00
7028;DHT22;3555;53.248;10.336;2023-04-24T15:12:13;11.70;1.00
7028;DHT22;3555;53.248;10.336;2023-04-24T15:14:40;11.70;1.00
7028;DHT22;3555;53.248;10.336;2023-04-24T15:17:07;11.80;1.00
7028;DHT22;3555;53.248;10.336;2023-04-24T15:19:34;11.80;1.00
7028;DHT22;3555;53.248;10.336;2023-04-24T15:22:01;11.70;21.10
7028;DHT22;3555;53.248;10.336;2023-04-24T15:24:28;11.50;1.00
7028;DHT22;3555;53.248;10.336;2023-04-24T15:26:56;11.30;1.00
7028;DHT22;3555;53.248;10.336;2023-04-24T15:29:24;11.40;1.00
7028;DHT22;3555;53.248;10.336;2023-04-24T15:31:51;11.40;1.00
7028;DHT22;3555;53.248;10.336;2023-04-24T15:34:18;11.40;1.00
7028;DHT22;3555;53.248;10.336;2023-04-24T15:36:45;11.40;1.00
7028;DHT22;3555;53.248;10.336;2023-04-24T15:39:12;11.30;1.00
7028;DHT22;3555;53.248;10.336;2023-04-24T15:41:39;11.40;91.50
7028;DHT22;3555;53.248;10.336;2023-04-24T15:44:07;11.60;99.90
7028;DHT22;3555;53.248;10.336;2023-04-24T15:46:34;11.70;1.00
7028;DHT22;3555;53.248;10.336;2023-04-24T15:49:01;11.60;99.90
7028;DHT22;3555;53.248;10.336;2023-04-24T15:51:28;11.70;99.90
7028;DHT22;3555;53.248;10.336;2023-04-24T15:53:56;11.80;1.00
7028;DHT22;3555;53.248;10.336;2023-04-24T15:56:23;11.70;1.00
7028;DHT22;3555;53.248;10.336;2023-04-24T15:58:49;11.40;99.90
7028;DHT22;3555;53.248;10.336;2023-04-24T16:01:18;11.30;1.00
7028;DHT22;3555;53.248;10.336;2023-04-24T16:03:45;11.30;1.00